createdAt,value
2022-11-20T00:00:30.713Z,72.31
2022-11-20T00:04:31.735Z,72.28
2022-11-20T00:08:30.221Z,72.39
2022-11-20T00:12:28.963Z,73.53
2022-11-20T00:16:28.695Z,73.36
2022-11-20T00:20:27.457Z,74.12
2022-11-20T00:24:25.987Z,74.97
2022-11-20T00:28:24.835Z,74.85
2022-11-20T00:32:23.698Z,74.49
2022-11-20T00:36:24.113Z,74.25
2022-11-20T00:40:23.272Z,73.94
2022-11-20T00:44:21.934Z,73.96
2022-11-20T00:48:20.524Z,74.01
2022-11-20T00:52:19.633Z,73.83
2022-11-20T00:56:19.320Z,73.74
2022-11-20T01:00:18.227Z,73.94
2022-11-20T01:04:17.427Z,74.01
2022-11-20T01:08:16.312Z,74.29
2022-11-20T01:12:16.007Z,74.45
2022-11-20T01:16:19.374Z,74.55
2022-11-20T01:20:18.503Z,74.40
2022-11-20T01:24:18.390Z,74.34
2022-11-20T01:28:17.411Z,74.40
2022-11-20T01:32:16.310Z,74.29
2022-11-20T01:36:16.247Z,74.30
2022-11-20T01:40:15.186Z,74.30
2022-11-20T01:44:16.492Z,74.18
2022-11-20T01:48:16.072Z,74.30
2022-11-20T01:52:25.919Z,74.22
2022-11-20T01:56:42.151Z,74.00
2022-11-20T02:00:41.599Z,74.09
2022-11-20T02:04:56.168Z,73.63
2022-11-20T02:09:15.167Z,74.22
2022-11-20T02:12:52.183Z,74.06
2022-11-20T02:16:52.188Z,74.68
2022-11-20T02:21:14.256Z,75.43
2022-11-20T02:25:33.691Z,75.43
2022-11-20T02:29:09.470Z,75.55
2022-11-20T02:32:30.289Z,75.75
2022-11-20T02:36:29.870Z,75.79
2022-11-20T02:40:29.608Z,76.07
2022-11-20T02:44:28.583Z,76.07
2022-11-20T02:48:30.231Z,76.37
2022-11-20T02:52:32.260Z,76.57
2022-11-20T02:56:30.968Z,76.66
2022-11-20T03:00:29.913Z,76.73
2022-11-20T03:04:28.736Z,76.83
2022-11-20T03:08:27.604Z,77.21
2022-11-20T03:12:26.885Z,77.15
2022-11-20T03:16:26.085Z,77.18
2022-11-20T03:20:25.388Z,77.48
2022-11-20T03:24:24.333Z,77.55
2022-11-20T03:28:23.253Z,77.71
2022-11-20T03:32:35.802Z,77.26
2022-11-20T03:36:35.365Z,77.10
2022-11-20T03:40:36.089Z,77.13
2022-11-20T03:44:37.630Z,77.12
2022-11-20T03:48:12.949Z,77.41
2022-11-20T03:52:11.689Z,77.44
2022-11-20T03:56:27.175Z,77.48
2022-11-20T04:00:28.225Z,77.46
2022-11-20T04:04:04.101Z,77.47
2022-11-20T04:08:02.870Z,77.50
2022-11-20T04:12:01.444Z,77.45
2022-11-20T04:16:00.512Z,77.40
2022-11-20T04:19:59.148Z,76.83
2022-11-20T04:23:58.748Z,72.18
2022-11-20T04:27:57.727Z,69.17
2022-11-20T04:31:56.446Z,67.41
2022-11-20T04:35:55.343Z,65.52
2022-11-20T04:39:54.465Z,65.22
2022-11-20T04:43:54.628Z,64.85
2022-11-20T04:47:53.958Z,64.69
2022-11-20T04:51:55.855Z,65.46
2022-11-20T04:56:00.119Z,65.29
2022-11-20T04:59:59.155Z,65.02
2022-11-20T05:03:58.508Z,64.93
2022-11-20T05:07:58.615Z,64.65
2022-11-20T05:11:57.396Z,64.28
2022-11-20T05:16:11.651Z,64.38
2022-11-20T05:20:11.230Z,63.88
2022-11-20T05:24:09.807Z,63.32
2022-11-20T05:28:08.602Z,63.02
2022-11-20T05:32:10.387Z,62.42
2022-11-20T05:36:10.377Z,61.26
2022-11-20T05:40:09.466Z,64.15
2022-11-20T05:44:08.601Z,66.25
2022-11-20T05:48:07.370Z,64.52
2022-11-20T05:52:06.290Z,63.72
2022-11-20T05:56:06.546Z,63.13
2022-11-20T06:00:06.744Z,62.76
2022-11-20T06:04:08.445Z,62.71
2022-11-20T06:08:08.031Z,62.58
2022-11-20T06:12:08.380Z,62.68
2022-11-20T06:16:07.929Z,62.29
2022-11-20T06:20:07.030Z,61.53
2022-11-20T06:24:06.308Z,65.34
2022-11-20T06:28:05.192Z,66.11
2022-11-20T06:32:03.894Z,64.68
2022-11-20T06:36:08.969Z,63.68
2022-11-20T06:40:10.223Z,62.88
2022-11-20T06:44:09.012Z,62.62
2022-11-20T06:48:07.749Z,61.57
2022-11-20T06:52:08.504Z,64.50
2022-11-20T06:55:47.952Z,65.99
2022-11-20T06:59:46.871Z,64.92
2022-11-20T07:03:48.006Z,63.75
2022-11-20T07:07:52.833Z,63.05
2022-11-20T07:11:51.631Z,62.87
2022-11-20T07:15:50.781Z,62.40
2022-11-20T07:19:49.633Z,61.57
2022-11-20T07:23:48.121Z,64.83
2022-11-20T07:27:46.771Z,66.24
2022-11-20T07:31:45.495Z,64.01
2022-11-20T07:35:44.575Z,63.26
2022-11-20T07:39:43.751Z,62.65
2022-11-20T07:43:42.749Z,62.75
2022-11-20T07:47:41.604Z,62.79
2022-11-20T07:51:40.614Z,63.00
2022-11-20T07:55:39.398Z,62.81
2022-11-20T07:59:38.152Z,62.90
2022-11-20T08:03:40.491Z,62.82
2022-11-20T08:07:40.804Z,62.03
2022-11-20T08:12:14.053Z,64.98
2022-11-20T08:16:14.403Z,63.93
2022-11-20T08:20:14.764Z,62.58
2022-11-20T08:24:14.725Z,61.91
2022-11-20T08:28:21.769Z,64.53
2022-11-20T08:32:21.577Z,64.09
2022-11-20T08:36:23.873Z,62.54
2022-11-20T08:40:00.564Z,61.34
2022-11-20T08:43:36.451Z,62.82
2022-11-20T08:47:35.946Z,64.57
2022-11-20T08:51:41.009Z,62.63
2022-11-20T08:55:14.596Z,60.58
2022-11-20T09:03:34.591Z,64.88
2022-11-20T09:07:33.734Z,62.45
2022-11-20T09:11:36.452Z,60.21
2022-11-20T09:15:10.913Z,62.41
2022-11-20T09:19:34.470Z,64.73
2022-11-20T09:23:33.135Z,62.58
2022-11-20T09:27:31.695Z,60.72
2022-11-20T09:31:30.909Z,62.82
2022-11-20T09:35:29.654Z,64.35
2022-11-20T09:39:28.576Z,62.67
2022-11-20T09:43:33.783Z,60.74
2022-11-20T09:47:43.554Z,61.70
2022-11-20T09:51:59.231Z,65.65
2022-11-20T09:55:59.151Z,63.61
2022-11-20T10:00:00.557Z,62.08
2022-11-20T10:04:03.009Z,58.37
2022-11-20T10:08:10.131Z,57.88
2022-11-20T10:12:09.345Z,61.14
2022-11-20T10:16:15.592Z,64.48
2022-11-20T10:20:14.949Z,63.88
2022-11-20T10:24:18.055Z,60.83
2022-11-20T10:28:16.710Z,62.92
2022-11-20T10:32:17.779Z,64.79
2022-11-20T10:36:38.533Z,63.41
2022-11-20T10:40:40.050Z,60.60
2022-11-20T10:45:04.138Z,62.24
2022-11-20T10:49:06.446Z,66.17
2022-11-20T10:53:24.623Z,65.54
2022-11-20T10:57:27.314Z,63.71
2022-11-20T11:01:27.840Z,62.45
2022-11-20T11:05:26.973Z,60.94
2022-11-20T11:09:34.078Z,62.31
2022-11-20T11:13:33.885Z,63.44
2022-11-20T11:17:34.192Z,63.48
2022-11-20T11:21:33.171Z,62.68
2022-11-20T11:25:37.014Z,61.64
2022-11-20T11:29:36.053Z,64.34
2022-11-20T11:33:48.710Z,64.96
2022-11-20T11:37:52.069Z,63.28
2022-11-20T11:41:51.308Z,61.48
2022-11-20T11:45:56.082Z,63.08
2022-11-20T11:50:21.597Z,63.81
2022-11-20T11:54:26.565Z,61.07
2022-11-20T11:58:44.509Z,61.74
2022-11-20T12:03:04.315Z,64.84
2022-11-20T12:07:38.853Z,62.47
2022-11-20T12:11:47.572Z,60.41
2022-11-20T12:15:48.146Z,61.22
2022-11-20T12:19:47.067Z,64.87
2022-11-20T12:23:56.521Z,63.67
2022-11-20T12:28:07.632Z,60.45
2022-11-20T12:32:06.636Z,61.38
2022-11-20T12:36:09.290Z,64.52
2022-11-20T12:40:29.906Z,63.18
2022-11-20T12:44:53.490Z,62.27
2022-11-20T12:49:03.624Z,61.45
2022-11-20T12:53:19.226Z,63.26
2022-11-20T12:57:37.565Z,64.85
2022-11-20T13:01:55.986Z,63.20
2022-11-20T13:05:58.794Z,62.69
2022-11-20T13:09:59.232Z,61.36
2022-11-20T13:14:01.046Z,62.67
2022-11-20T13:18:01.866Z,65.07
2022-11-20T13:22:01.317Z,64.33
2022-11-20T13:26:19.546Z,63.47
2022-11-20T13:30:21.453Z,63.22
2022-11-20T13:34:28.895Z,62.98
2022-11-20T13:38:33.833Z,62.92
2022-11-20T13:42:36.914Z,61.74
2022-11-20T13:46:37.405Z,63.27
2022-11-20T13:50:42.132Z,65.79
2022-11-20T13:54:45.204Z,65.43
2022-11-20T13:59:17.382Z,65.22
2022-11-20T14:03:25.005Z,64.16
2022-11-20T14:07:53.494Z,63.57
2022-11-20T14:11:52.843Z,63.07
2022-11-20T14:16:05.700Z,62.37
2022-11-20T14:20:06.432Z,61.39
2022-11-20T14:24:22.672Z,64.63
2022-11-20T14:27:58.772Z,65.85
2022-11-20T14:31:58.624Z,66.80
2022-11-20T14:35:59.148Z,66.68
2022-11-20T14:40:00.153Z,66.66
2022-11-20T14:44:00.296Z,67.34
2022-11-20T14:48:01.033Z,65.02
2022-11-20T14:52:04.745Z,63.49
2022-11-20T14:56:04.265Z,62.18
2022-11-20T15:00:09.912Z,61.12
2022-11-20T15:04:11.573Z,63.80
2022-11-20T15:08:12.022Z,65.95
2022-11-20T15:12:18.750Z,64.71
2022-11-20T15:16:19.851Z,63.83
2022-11-20T15:20:19.026Z,63.32
2022-11-20T15:24:18.017Z,63.93
2022-11-20T15:28:22.632Z,65.05
2022-11-20T15:32:21.699Z,65.05
2022-11-20T15:36:20.510Z,65.24
2022-11-20T15:40:19.711Z,65.83
2022-11-20T15:44:18.805Z,65.82
2022-11-20T15:48:20.807Z,66.13
2022-11-20T15:52:19.409Z,67.20
2022-11-20T15:56:18.587Z,67.81
2022-11-20T16:00:22.236Z,67.83
2022-11-20T16:04:36.725Z,67.02
2022-11-20T16:08:35.857Z,65.19
2022-11-20T16:12:53.769Z,63.86
2022-11-20T16:16:53.064Z,64.31
2022-11-20T16:20:53.769Z,64.84
2022-11-20T16:24:53.084Z,65.21
2022-11-20T16:28:52.275Z,67.23
2022-11-20T16:32:52.021Z,67.46
2022-11-20T16:36:51.228Z,67.57
2022-11-20T16:40:50.425Z,67.23
2022-11-20T16:44:50.566Z,67.06
2022-11-20T16:48:56.929Z,67.68
2022-11-20T16:52:56.261Z,68.29
2022-11-20T16:56:55.325Z,68.29
2022-11-20T17:00:54.230Z,67.78
2022-11-20T17:04:53.172Z,68.43
2022-11-20T17:08:52.384Z,69.62
2022-11-20T17:12:51.628Z,70.19
2022-11-20T17:16:50.156Z,70.06
2022-11-20T17:20:54.670Z,70.52
2022-11-20T17:24:53.272Z,71.12
2022-11-20T17:28:56.242Z,71.17
2022-11-20T17:32:55.433Z,70.82
2022-11-20T17:36:55.611Z,71.16
2022-11-20T17:40:54.538Z,70.84
2022-11-20T17:44:53.464Z,70.34
2022-11-20T17:48:53.257Z,70.91
2022-11-20T17:52:52.907Z,71.33
2022-11-20T17:57:10.747Z,71.61
2022-11-20T18:01:10.925Z,71.97
2022-11-20T18:05:10.025Z,71.83
2022-11-20T18:09:09.064Z,72.01
2022-11-20T18:13:08.485Z,72.27
2022-11-20T18:17:12.052Z,72.49
2022-11-20T18:21:11.099Z,72.59
2022-11-20T18:25:10.961Z,72.63
2022-11-20T18:29:10.823Z,72.87
2022-11-20T18:33:10.010Z,73.36
2022-11-20T18:37:10.224Z,72.83
2022-11-20T18:41:29.434Z,72.63
2022-11-20T18:45:29.291Z,72.02
2022-11-20T18:49:28.833Z,70.80
2022-11-20T18:53:28.056Z,70.91
2022-11-20T18:57:28.212Z,70.56
2022-11-20T19:01:27.063Z,68.62
2022-11-20T19:05:26.714Z,67.63
2022-11-20T19:09:26.180Z,67.07
2022-11-20T19:13:26.495Z,66.90
2022-11-20T19:17:25.506Z,66.55
2022-11-20T19:21:25.233Z,66.38
2022-11-20T19:25:24.148Z,66.45
2022-11-20T19:29:24.835Z,66.85
2022-11-20T19:33:24.356Z,67.15
2022-11-20T19:37:25.588Z,67.21
2022-11-20T19:41:29.249Z,67.39
2022-11-20T19:45:28.155Z,67.23
2022-11-20T19:49:27.929Z,67.29
2022-11-20T19:53:27.520Z,66.81
2022-11-20T19:57:27.074Z,66.43
2022-11-20T20:01:27.684Z,66.74
2022-11-20T20:05:26.630Z,67.13
2022-11-20T20:09:27.203Z,67.18
2022-11-20T20:13:26.571Z,67.05
2022-11-20T20:17:25.225Z,67.67
2022-11-20T20:21:24.622Z,68.30
2022-11-20T20:25:23.376Z,69.05
2022-11-20T20:29:23.233Z,69.75
2022-11-20T20:33:22.664Z,69.21
2022-11-20T20:37:21.413Z,68.68
2022-11-20T20:41:21.202Z,68.49
2022-11-20T20:45:20.666Z,68.29
2022-11-20T20:49:20.840Z,68.33
2022-11-20T20:53:19.724Z,69.21
2022-11-20T20:57:19.449Z,68.18
2022-11-20T21:01:19.632Z,66.86
2022-11-20T21:05:19.034Z,65.61
2022-11-20T21:09:20.667Z,65.50
2022-11-20T21:12:55.732Z,65.47
2022-11-20T21:16:55.168Z,65.13
2022-11-20T21:21:14.690Z,65.16
2022-11-20T21:24:36.084Z,64.96
2022-11-20T21:28:36.053Z,64.57
2022-11-20T21:32:34.870Z,64.87
2022-11-20T21:36:34.113Z,64.93
2022-11-20T21:40:36.328Z,65.57
2022-11-20T21:44:35.407Z,66.26
2022-11-20T21:48:35.758Z,67.30
2022-11-20T21:52:34.609Z,67.82
2022-11-20T21:56:33.189Z,68.28
2022-11-20T22:00:32.291Z,69.09
2022-11-20T22:04:32.166Z,69.01
2022-11-20T22:08:31.355Z,69.33
2022-11-20T22:12:30.193Z,70.41
2022-11-20T22:16:28.831Z,71.20
2022-11-20T22:20:27.474Z,71.77
2022-11-20T22:24:26.394Z,71.91
2022-11-20T22:28:25.353Z,72.14
2022-11-20T22:32:24.291Z,72.62
2022-11-20T22:36:24.310Z,73.36
2022-11-20T22:40:23.530Z,73.99
2022-11-20T22:44:22.895Z,74.57
2022-11-20T22:48:22.067Z,74.40
2022-11-20T22:52:34.572Z,74.62
2022-11-20T22:56:33.849Z,74.51
2022-11-20T23:00:32.515Z,74.70
2022-11-20T23:04:31.474Z,74.67
2022-11-20T23:08:30.572Z,73.98
2022-11-20T23:12:29.794Z,73.68
2022-11-20T23:16:30.090Z,74.01
2022-11-20T23:20:28.790Z,74.58
2022-11-20T23:24:27.627Z,74.70
2022-11-20T23:28:27.148Z,74.07
2022-11-20T23:32:26.231Z,74.34
2022-11-20T23:36:25.652Z,74.71
2022-11-20T23:40:41.416Z,75.26
2022-11-20T23:44:40.495Z,76.04
2022-11-20T23:48:40.127Z,76.79
2022-11-20T23:52:39.095Z,77.00
2022-11-20T23:56:38.024Z,77.50
